createdAt,value
2019-05-02T00:00:56.381Z,8.00
2019-05-02T00:03:26.181Z,7.90
2019-05-02T00:05:55.145Z,7.90
2019-05-02T00:08:24.089Z,7.90
2019-05-02T00:10:53.128Z,7.90
2019-05-02T00:13:22.086Z,7.90
2019-05-02T00:15:52.058Z,8.00
2019-05-02T00:18:22.081Z,7.90
2019-05-02T00:20:51.125Z,7.90
2019-05-02T00:23:23.033Z,7.80
2019-05-02T00:25:52.496Z,7.80
2019-05-02T00:28:21.985Z,7.80
2019-05-02T00:30:51.032Z,7.80
2019-05-02T00:33:19.836Z,7.80
2019-05-02T00:35:49.013Z,7.70
2019-05-02T00:38:17.962Z,7.80
2019-05-02T00:40:46.834Z,7.70
2019-05-02T00:43:15.932Z,7.70
2019-05-02T00:45:44.746Z,7.70
2019-05-02T00:48:23.123Z,7.70
2019-05-02T00:50:52.700Z,7.60
2019-05-02T00:53:21.477Z,7.60
2019-05-02T00:55:50.490Z,7.60
2019-05-02T00:58:19.391Z,7.50
2019-05-02T01:01:07.501Z,7.40
2019-05-02T01:03:38.224Z,7.40
2019-05-02T01:06:13.962Z,7.40
2019-05-02T01:08:37.865Z,7.40
2019-05-02T01:11:06.744Z,7.50
2019-05-02T01:13:35.617Z,7.50
2019-05-02T01:16:04.703Z,7.50
2019-05-02T01:18:37.155Z,7.40
2019-05-02T01:21:04.241Z,7.40
2019-05-02T01:23:33.236Z,7.40
2019-05-02T01:26:02.220Z,7.40
2019-05-02T01:28:58.834Z,7.40
2019-05-02T01:31:40.044Z,7.40
2019-05-02T01:34:29.304Z,7.30
2019-05-02T01:37:03.507Z,7.30
2019-05-02T01:39:32.544Z,7.30
2019-05-02T01:42:04.116Z,7.30
2019-05-02T01:44:36.305Z,7.20
2019-05-02T01:47:02.753Z,7.10
2019-05-02T01:49:31.660Z,7.10
2019-05-02T01:52:00.661Z,7.10
2019-05-02T01:54:29.621Z,7.10
2019-05-02T01:56:58.409Z,7.00
2019-05-02T01:59:29.124Z,7.00
2019-05-02T02:01:59.062Z,6.90
2019-05-02T02:04:28.149Z,6.90
2019-05-02T02:06:57.028Z,7.00
2019-05-02T02:09:26.224Z,6.90
2019-05-02T02:11:55.037Z,7.00
2019-05-02T02:14:23.849Z,7.00
2019-05-02T02:16:52.837Z,7.00
2019-05-02T02:19:29.800Z,7.00
2019-05-02T02:22:06.393Z,6.90
2019-05-02T02:24:39.359Z,6.90
2019-05-02T02:27:08.236Z,6.90
2019-05-02T02:29:38.955Z,6.90
2019-05-02T02:32:07.649Z,7.00
2019-05-02T02:34:36.596Z,7.00
2019-05-02T02:37:12.261Z,7.00
2019-05-02T02:39:36.293Z,6.90
2019-05-02T02:42:05.618Z,6.80
2019-05-02T02:45:02.503Z,6.80
2019-05-02T02:47:31.538Z,6.70
2019-05-02T02:50:02.515Z,6.80
2019-05-02T02:52:30.905Z,6.70
2019-05-02T02:55:00.062Z,6.70
2019-05-02T02:57:28.900Z,6.60
2019-05-02T03:00:06.293Z,6.60
2019-05-02T03:02:28.213Z,6.60
2019-05-02T03:04:57.154Z,6.70
2019-05-02T03:07:28.792Z,6.70
2019-05-02T03:10:03.376Z,6.60
2019-05-02T03:12:45.623Z,6.60
2019-05-02T03:15:21.019Z,6.60
2019-05-02T03:17:48.250Z,6.60
2019-05-02T03:20:17.075Z,6.60
2019-05-02T03:22:46.169Z,6.60
2019-05-02T03:25:18.353Z,6.70
2019-05-02T03:27:45.804Z,6.80
2019-05-02T03:30:29.445Z,6.90
2019-05-02T03:33:02.980Z,7.00
2019-05-02T03:35:18.886Z,7.10
2019-05-02T03:37:51.371Z,7.20
2019-05-02T03:40:17.794Z,7.20
2019-05-02T03:42:47.648Z,7.20
2019-05-02T03:45:16.641Z,7.20
2019-05-02T03:47:46.602Z,7.30
2019-05-02T03:50:17.121Z,7.30
2019-05-02T03:52:46.685Z,7.20
2019-05-02T03:55:15.832Z,7.20
2019-05-02T03:57:44.896Z,7.10
2019-05-02T04:00:20.980Z,7.10
2019-05-02T04:02:45.041Z,7.10
2019-05-02T04:05:14.016Z,7.00
2019-05-02T04:07:42.960Z,7.00
2019-05-02T04:10:13.531Z,7.00
2019-05-02T04:12:42.860Z,7.10
2019-05-02T04:15:12.577Z,7.00
2019-05-02T04:17:42.525Z,7.00
2019-05-02T04:20:12.771Z,7.00
2019-05-02T04:22:42.733Z,7.00
2019-05-02T04:25:12.981Z,7.00
2019-05-02T04:27:42.745Z,7.00
2019-05-02T04:30:14.306Z,7.00
2019-05-02T04:32:43.250Z,7.00
2019-05-02T04:35:13.306Z,7.00
2019-05-02T04:37:43.833Z,7.00
2019-05-02T04:40:13.261Z,7.00
2019-05-02T04:42:42.065Z,7.00
2019-05-02T04:45:24.165Z,7.00
2019-05-02T04:47:42.476Z,7.00
2019-05-02T04:50:18.000Z,7.10
2019-05-02T04:52:51.309Z,7.10
2019-05-02T04:55:26.116Z,7.10
2019-05-02T04:57:50.605Z,7.10
2019-05-02T05:00:20.325Z,7.10
2019-05-02T05:02:52.977Z,7.10
2019-05-02T05:05:25.807Z,7.20
2019-05-02T05:07:50.385Z,7.20
2019-05-02T05:10:19.264Z,7.20
2019-05-02T05:12:48.137Z,7.30
2019-05-02T05:15:33.831Z,7.30
2019-05-02T05:17:50.059Z,7.30
2019-05-02T05:20:19.080Z,7.40
2019-05-02T05:22:48.033Z,7.40
2019-05-02T05:25:21.970Z,7.40
2019-05-02T05:27:52.779Z,7.40
2019-05-02T05:30:21.469Z,7.50
2019-05-02T05:32:50.424Z,7.50
2019-05-02T05:35:20.317Z,7.50
2019-05-02T05:37:53.131Z,7.40
2019-05-02T05:40:22.695Z,7.50
2019-05-02T05:42:50.964Z,7.50
2019-05-02T05:45:20.030Z,7.60
2019-05-02T05:47:52.350Z,7.60
2019-05-02T05:50:20.368Z,7.60
2019-05-02T05:52:51.767Z,7.70
2019-05-02T05:55:24.012Z,7.80
2019-05-02T05:57:59.646Z,7.90
2019-05-02T06:00:23.129Z,8.00
2019-05-02T06:02:56.255Z,8.20
2019-05-02T06:05:23.143Z,8.30
2019-05-02T06:07:51.983Z,8.30
2019-05-02T06:10:20.841Z,8.60
2019-05-02T06:12:49.831Z,8.70
2019-05-02T06:15:18.801Z,8.90
2019-05-02T06:17:47.597Z,9.10
2019-05-02T06:20:16.665Z,9.10
2019-05-02T06:22:45.461Z,9.20
2019-05-02T06:25:14.739Z,9.20
2019-05-02T06:27:43.708Z,9.20
2019-05-02T06:30:12.750Z,9.30
2019-05-02T06:32:41.666Z,9.50
2019-05-02T06:35:11.046Z,9.60
2019-05-02T06:37:40.783Z,9.60
2019-05-02T06:40:10.529Z,9.60
2019-05-02T06:42:39.634Z,9.50
2019-05-02T06:45:09.409Z,9.70
2019-05-02T06:47:41.654Z,9.80
2019-05-02T06:50:09.745Z,10.10
2019-05-02T06:52:38.572Z,10.00
2019-05-02T06:55:07.654Z,10.30
2019-05-02T06:57:36.691Z,10.50
2019-05-02T07:00:06.867Z,10.70
2019-05-02T07:02:35.953Z,10.80
2019-05-02T07:05:05.316Z,11.00
2019-05-02T07:07:37.012Z,11.10
2019-05-02T07:10:07.348Z,11.20
2019-05-02T07:12:36.209Z,11.20
2019-05-02T07:15:09.419Z,11.40
2019-05-02T07:17:40.756Z,11.40
2019-05-02T07:20:10.046Z,11.60
2019-05-02T07:22:40.826Z,11.90
2019-05-02T07:25:10.115Z,12.00
2019-05-02T07:27:39.264Z,12.40
2019-05-02T07:30:10.898Z,12.70
2019-05-02T07:32:39.849Z,12.90
2019-05-02T07:35:09.580Z,12.80
2019-05-02T07:37:38.748Z,12.90
2019-05-02T07:40:12.033Z,13.00
2019-05-02T07:42:41.763Z,13.40
2019-05-02T07:45:10.747Z,13.70
2019-05-02T07:47:42.091Z,13.50
2019-05-02T07:50:11.974Z,13.50
2019-05-02T07:52:41.498Z,13.40
2019-05-02T07:55:10.894Z,13.60
2019-05-02T07:57:40.000Z,13.90
2019-05-02T08:00:10.283Z,14.00
2019-05-02T08:02:39.152Z,14.20
2019-05-02T08:05:08.919Z,14.50
2019-05-02T08:07:38.145Z,14.90
2019-05-02T08:10:07.453Z,14.70
2019-05-02T08:12:36.477Z,14.40
2019-05-02T08:15:07.409Z,14.50
2019-05-02T08:17:36.796Z,14.50
2019-05-02T08:20:08.549Z,14.50
2019-05-02T08:22:36.965Z,14.90
2019-05-02T08:25:10.456Z,14.70
2019-05-02T08:27:46.550Z,14.90
2019-05-02T08:30:23.763Z,14.90
2019-05-02T08:33:11.827Z,15.30
2019-05-02T08:35:40.917Z,15.50
2019-05-02T08:38:12.566Z,15.90
2019-05-02T08:40:42.250Z,16.10
2019-05-02T08:43:11.160Z,15.80
2019-05-02T08:45:39.966Z,16.00
2019-05-02T08:48:08.859Z,16.10
2019-05-02T08:50:37.940Z,16.20
2019-05-02T08:53:07.043Z,15.70
2019-05-02T08:55:36.081Z,15.70
2019-05-02T08:58:06.765Z,16.20
2019-05-02T09:00:37.644Z,16.80
2019-05-02T09:03:06.816Z,17.10
2019-05-02T09:05:36.406Z,16.70
2019-05-02T09:08:09.173Z,16.60
2019-05-02T09:10:41.661Z,17.10
2019-05-02T09:13:07.837Z,17.10
2019-05-02T09:15:40.347Z,16.80
2019-05-02T09:18:07.500Z,17.30
2019-05-02T09:20:36.393Z,17.10
2019-05-02T09:23:05.401Z,17.20
2019-05-02T09:25:34.452Z,17.10
2019-05-02T09:28:03.550Z,17.00
2019-05-02T09:30:32.799Z,17.30
2019-05-02T09:33:05.411Z,17.20
2019-05-02T09:35:32.882Z,17.00
2019-05-02T09:38:01.888Z,17.30
2019-05-02T09:40:31.878Z,17.10
2019-05-02T09:43:02.754Z,17.30
2019-05-02T09:45:37.220Z,17.20
2019-05-02T09:48:07.589Z,17.00
2019-05-02T09:50:36.573Z,16.60
2019-05-02T09:53:04.998Z,16.50
2019-05-02T09:55:33.880Z,16.40
2019-05-02T09:58:02.909Z,16.30
2019-05-02T10:01:02.013Z,16.20
2019-05-02T10:03:33.445Z,15.80
2019-05-02T10:06:03.174Z,15.60
2019-05-02T10:08:32.335Z,15.50
2019-05-02T10:11:02.866Z,15.20
2019-05-02T10:13:33.288Z,15.00
2019-05-02T10:16:02.500Z,14.90
2019-05-02T10:18:32.977Z,14.80
2019-05-02T10:21:03.023Z,14.70
2019-05-02T10:23:32.333Z,14.70
2019-05-02T10:26:02.840Z,14.70
2019-05-02T10:28:31.964Z,14.70
2019-05-02T10:31:02.267Z,14.70
2019-05-02T10:33:33.552Z,14.60
2019-05-02T10:36:02.784Z,14.30
2019-05-02T10:38:32.530Z,14.40
2019-05-02T10:41:02.679Z,14.20
2019-05-02T10:43:32.915Z,14.20
2019-05-02T10:46:07.864Z,14.20
2019-05-02T10:48:39.547Z,14.10
2019-05-02T10:51:26.381Z,14.10
2019-05-02T10:53:56.653Z,14.10
2019-05-02T10:56:25.966Z,14.10
2019-05-02T10:58:54.846Z,14.00
2019-05-02T11:01:25.704Z,13.80
2019-05-02T11:03:55.397Z,13.70
2019-05-02T11:06:24.204Z,13.80
2019-05-02T11:08:53.153Z,13.70
2019-05-02T11:11:22.547Z,13.70
2019-05-02T11:14:12.013Z,13.60
2019-05-02T11:16:53.105Z,13.50
2019-05-02T11:19:27.609Z,13.40
2019-05-02T11:21:59.115Z,13.50
2019-05-02T11:24:26.945Z,13.70
2019-05-02T11:26:55.913Z,13.70
2019-05-02T11:29:24.716Z,13.70
2019-05-02T11:31:53.741Z,13.80
2019-05-02T11:34:22.732Z,13.60
2019-05-02T11:36:52.735Z,13.70
2019-05-02T11:39:28.664Z,13.50
2019-05-02T11:41:52.837Z,13.50
2019-05-02T11:44:22.597Z,13.40
2019-05-02T11:46:52.085Z,13.40
2019-05-02T11:49:22.792Z,13.40
2019-05-02T11:51:56.923Z,13.30
2019-05-02T11:54:22.778Z,13.20
2019-05-02T11:56:53.634Z,13.20
2019-05-02T11:59:27.658Z,13.20
2019-05-02T12:02:17.534Z,13.30
2019-05-02T12:04:47.288Z,13.20
2019-05-02T12:07:16.305Z,13.20
2019-05-02T12:09:55.458Z,13.30
2019-05-02T12:12:15.791Z,13.30
2019-05-02T12:14:44.844Z,13.40
2019-05-02T12:17:13.711Z,13.40
2019-05-02T12:19:42.797Z,13.40
2019-05-02T12:22:16.528Z,13.40
2019-05-02T12:24:45.383Z,13.50
2019-05-02T12:27:13.083Z,13.70
2019-05-02T12:29:42.380Z,13.90
2019-05-02T12:32:12.068Z,14.10
2019-05-02T12:34:42.033Z,14.00
2019-05-02T12:37:14.023Z,13.80
2019-05-02T12:39:43.089Z,13.80
2019-05-02T12:42:12.914Z,13.90
2019-05-02T12:44:42.669Z,13.80
2019-05-02T12:47:12.133Z,13.60
2019-05-02T12:49:42.393Z,13.50
2019-05-02T12:52:16.267Z,13.60
2019-05-02T12:54:58.550Z,13.60
2019-05-02T12:57:32.124Z,13.70
2019-05-02T13:00:05.099Z,13.60
2019-05-02T13:02:49.801Z,13.70
2019-05-02T13:05:18.845Z,13.60
2019-05-02T13:07:50.376Z,13.50
2019-05-02T13:10:28.164Z,13.60
2019-05-02T13:12:57.089Z,13.70
2019-05-02T13:15:26.105Z,14.10
2019-05-02T13:17:55.284Z,14.20
2019-05-02T13:20:29.394Z,14.30
2019-05-02T13:23:17.844Z,14.40
2019-05-02T13:25:46.740Z,13.90
2019-05-02T13:28:17.171Z,13.80
2019-05-02T13:31:14.451Z,13.80
2019-05-02T13:33:52.241Z,13.90
2019-05-02T13:36:44.705Z,13.90
2019-05-02T13:39:23.893Z,14.00
2019-05-02T13:41:52.893Z,14.00
2019-05-02T13:44:25.209Z,13.90
2019-05-02T13:46:54.233Z,13.80
2019-05-02T13:49:23.197Z,13.90
2019-05-02T13:51:52.268Z,13.80
2019-05-02T13:54:24.387Z,14.10
2019-05-02T13:56:53.277Z,14.00
2019-05-02T13:59:22.531Z,14.00
2019-05-02T14:01:53.413Z,14.10
2019-05-02T14:04:23.411Z,14.20
2019-05-02T14:06:53.080Z,14.00
2019-05-02T14:09:28.120Z,14.10
2019-05-02T14:12:02.279Z,14.10
2019-05-02T14:14:32.627Z,14.40
2019-05-02T14:17:03.041Z,14.60
2019-05-02T14:19:32.249Z,14.70
2019-05-02T14:22:02.822Z,14.60
2019-05-02T14:24:32.370Z,14.60
2019-05-02T14:27:02.661Z,14.60
2019-05-02T14:29:32.957Z,14.70
2019-05-02T14:32:02.717Z,14.70
2019-05-02T14:34:49.330Z,14.50
2019-05-02T14:37:18.258Z,14.60
2019-05-02T14:39:49.410Z,14.80
2019-05-02T14:42:25.889Z,14.90
2019-05-02T14:45:05.551Z,14.80
2019-05-02T14:47:19.798Z,14.70
2019-05-02T14:49:48.777Z,14.70
2019-05-02T14:52:17.752Z,14.80
2019-05-02T14:54:48.059Z,15.10
2019-05-02T14:57:22.925Z,14.90
2019-05-02T14:59:59.109Z,14.90
2019-05-02T15:02:47.231Z,14.90
2019-05-02T15:05:19.223Z,15.00
2019-05-02T15:07:48.257Z,15.00
2019-05-02T15:10:18.621Z,15.10
2019-05-02T15:12:51.631Z,15.00
2019-05-02T15:15:18.289Z,14.90
2019-05-02T15:17:47.526Z,14.90
2019-05-02T15:20:16.453Z,15.00
2019-05-02T15:22:45.383Z,14.90
2019-05-02T15:25:17.831Z,14.90
2019-05-02T15:27:50.027Z,14.90
2019-05-02T15:30:17.201Z,14.90
2019-05-02T15:32:54.737Z,14.80
2019-05-02T15:35:57.479Z,14.90
2019-05-02T15:38:28.033Z,15.00
2019-05-02T15:40:59.117Z,15.00
2019-05-02T15:43:26.737Z,14.90
2019-05-02T15:45:55.637Z,14.80
2019-05-02T15:48:27.507Z,14.80
2019-05-02T15:50:59.620Z,14.90
2019-05-02T15:53:48.266Z,15.10
2019-05-02T15:56:19.864Z,14.90
2019-05-02T15:58:44.897Z,15.00
2019-05-02T16:01:27.059Z,15.10
2019-05-02T16:03:56.695Z,14.90
2019-05-02T16:06:30.765Z,14.80
2019-05-02T16:08:56.177Z,14.60
2019-05-02T16:11:25.353Z,14.60
2019-05-02T16:13:55.958Z,14.60
2019-05-02T16:16:24.733Z,14.50
2019-05-02T16:18:53.642Z,14.50
2019-05-02T16:21:37.798Z,14.50
2019-05-02T16:24:19.887Z,14.30
2019-05-02T16:26:49.492Z,14.30
2019-05-02T16:29:23.751Z,14.20
2019-05-02T16:31:59.593Z,14.20
2019-05-02T16:34:31.364Z,14.10
2019-05-02T16:37:13.504Z,14.00
2019-05-02T16:39:42.504Z,14.00
2019-05-02T16:42:12.443Z,13.90
2019-05-02T16:44:42.961Z,13.80
2019-05-02T16:47:13.874Z,13.70
2019-05-02T16:49:43.116Z,13.60
2019-05-02T16:52:13.148Z,13.60
2019-05-02T16:55:03.029Z,13.70
2019-05-02T16:57:32.795Z,13.60
2019-05-02T17:00:06.132Z,13.60
2019-05-02T17:02:37.750Z,13.50
2019-05-02T17:05:09.362Z,13.40
2019-05-02T17:07:46.741Z,13.30
2019-05-02T17:10:22.452Z,13.20
2019-05-02T17:12:52.863Z,13.10
2019-05-02T17:15:31.147Z,12.90
2019-05-02T17:17:57.967Z,12.80
2019-05-02T17:20:27.052Z,12.80
2019-05-02T17:23:02.581Z,12.70
2019-05-02T17:25:28.067Z,12.60
2019-05-02T17:28:03.984Z,12.60
2019-05-02T17:30:33.321Z,12.60
2019-05-02T17:32:58.233Z,12.50
2019-05-02T17:35:27.153Z,12.50
2019-05-02T17:37:56.030Z,12.30
2019-05-02T17:40:26.134Z,12.30
2019-05-02T17:42:57.266Z,12.30
2019-05-02T17:45:25.897Z,12.30
2019-05-02T17:47:54.960Z,12.20
2019-05-02T17:50:43.413Z,12.20
2019-05-02T17:53:12.398Z,12.20
2019-05-02T17:55:44.232Z,12.20
2019-05-02T17:58:12.951Z,12.20
2019-05-02T18:00:47.409Z,12.30
2019-05-02T18:03:16.578Z,12.40
2019-05-02T18:05:45.449Z,12.30
2019-05-02T18:08:14.840Z,12.20
2019-05-02T18:10:44.263Z,12.10
2019-05-02T18:13:13.406Z,12.10
2019-05-02T18:15:42.361Z,12.00
2019-05-02T18:18:11.359Z,12.10
2019-05-02T18:20:44.588Z,12.20
2019-05-02T18:23:12.219Z,12.20
2019-05-02T18:25:41.260Z,12.20
2019-05-02T18:28:14.039Z,12.20
2019-05-02T18:30:41.730Z,12.30
2019-05-02T18:33:12.030Z,12.20
2019-05-02T18:35:43.037Z,12.20
2019-05-02T18:38:11.527Z,12.20
2019-05-02T18:40:42.231Z,12.10
2019-05-02T18:43:11.189Z,12.10
2019-05-02T18:45:40.121Z,12.10
2019-05-02T18:48:10.136Z,12.00
2019-05-02T18:50:46.363Z,12.00
2019-05-02T18:53:13.753Z,12.00
2019-05-02T18:55:42.793Z,11.90
2019-05-02T18:58:12.845Z,11.80
2019-05-02T19:00:42.326Z,11.90
2019-05-02T19:03:13.221Z,11.70
2019-05-02T19:05:42.452Z,11.70
2019-05-02T19:08:12.081Z,11.70
2019-05-02T19:10:44.739Z,11.70
2019-05-02T19:13:12.853Z,11.70
2019-05-02T19:15:45.146Z,11.70
2019-05-02T19:18:18.138Z,11.70
2019-05-02T19:21:08.841Z,11.70
2019-05-02T19:23:38.477Z,11.50
2019-05-02T19:26:14.702Z,11.60
2019-05-02T19:29:08.569Z,11.50
2019-05-02T19:31:44.297Z,11.50
2019-05-02T19:34:11.970Z,11.50
2019-05-02T19:36:43.439Z,11.40
2019-05-02T19:39:12.465Z,11.30
2019-05-02T19:41:43.879Z,11.30
2019-05-02T19:44:11.913Z,11.20
2019-05-02T19:46:42.189Z,11.20
2019-05-02T19:49:15.845Z,11.20
2019-05-02T19:51:42.357Z,11.10
2019-05-02T20:02:06.082Z,11.20
2019-05-02T20:04:37.696Z,11.10
2019-05-02T20:07:05.270Z,11.20
2019-05-02T20:09:38.086Z,11.20
2019-05-02T20:12:09.273Z,11.20
2019-05-02T20:14:38.129Z,11.10
2019-05-02T20:17:09.600Z,11.10
2019-05-02T20:19:42.224Z,11.00
2019-05-02T20:22:14.735Z,11.10
2019-05-02T20:24:55.464Z,11.10
2019-05-02T20:27:22.839Z,11.10
2019-05-02T20:29:52.160Z,11.10
2019-05-02T20:32:22.078Z,11.10
2019-05-02T20:34:51.389Z,11.00
2019-05-02T20:37:22.086Z,10.90
2019-05-02T20:39:50.950Z,11.00
2019-05-02T20:42:19.980Z,10.90
2019-05-02T20:44:48.896Z,11.00
2019-05-02T20:47:23.693Z,10.90
2019-05-02T20:49:52.595Z,10.90
2019-05-02T20:52:21.888Z,10.90
2019-05-02T20:54:52.393Z,10.90
2019-05-02T20:57:21.669Z,10.90
2019-05-02T20:59:52.592Z,10.90
2019-05-02T21:02:21.604Z,10.90
2019-05-02T21:04:52.087Z,10.90
2019-05-02T21:07:39.913Z,10.90
2019-05-02T21:10:21.725Z,10.80
2019-05-02T21:12:52.681Z,10.80
2019-05-02T21:15:21.775Z,10.80
2019-05-02T21:17:50.589Z,10.70
2019-05-02T21:20:21.770Z,10.80
2019-05-02T21:22:50.387Z,10.80
2019-05-02T21:25:19.442Z,10.70
2019-05-02T21:27:48.645Z,10.60
2019-05-02T21:30:23.663Z,10.70
2019-05-02T21:32:52.727Z,10.70
2019-05-02T21:35:22.344Z,10.70
2019-05-02T21:37:52.444Z,10.70
2019-05-02T21:40:22.702Z,10.70
2019-05-02T21:42:52.204Z,10.60
2019-05-02T21:45:22.275Z,10.60
2019-05-02T21:47:52.762Z,10.60
2019-05-02T21:50:46.168Z,10.60
2019-05-02T21:53:26.558Z,10.60
2019-05-02T21:56:17.615Z,10.60
2019-05-02T21:59:04.346Z,10.70
2019-05-02T22:01:35.880Z,10.60
2019-05-02T22:04:05.027Z,10.60
2019-05-02T22:06:34.379Z,10.60
2019-05-02T22:09:03.847Z,10.60
2019-05-02T22:11:32.712Z,10.50
2019-05-02T22:14:02.361Z,10.40
2019-05-02T22:16:32.642Z,10.40
2019-05-02T22:19:02.886Z,10.40
2019-05-02T22:21:35.060Z,10.30
2019-05-02T22:24:10.999Z,10.30
2019-05-02T22:26:33.698Z,10.30
2019-05-02T22:29:02.687Z,10.30
2019-05-02T22:31:32.337Z,10.30
2019-05-02T22:34:02.161Z,10.20
2019-05-02T22:36:32.660Z,10.20
2019-05-02T22:39:22.059Z,10.20
2019-05-02T22:41:52.467Z,10.20
2019-05-02T22:44:21.861Z,10.20
2019-05-02T22:46:52.159Z,10.10
2019-05-02T22:49:22.539Z,10.20
2019-05-02T22:51:51.800Z,10.10
2019-05-02T22:54:27.909Z,10.10
2019-05-02T22:56:52.075Z,10.00
2019-05-02T22:59:23.637Z,10.00
2019-05-02T23:01:52.787Z,9.90
2019-05-02T23:04:23.565Z,9.90
2019-05-02T23:06:53.033Z,9.90
2019-05-02T23:09:22.201Z,9.80
2019-05-02T23:11:51.857Z,9.80
2019-05-02T23:14:22.093Z,9.80
2019-05-02T23:16:52.807Z,9.70
2019-05-02T23:19:22.981Z,9.60
2019-05-02T23:21:52.772Z,9.60
2019-05-02T23:24:38.723Z,9.60
2019-05-02T23:27:22.380Z,9.70
2019-05-02T23:29:52.003Z,9.60
2019-05-02T23:32:23.614Z,9.60
2019-05-02T23:34:52.280Z,9.60
2019-05-02T23:37:21.623Z,9.60
2019-05-02T23:39:52.263Z,9.50
2019-05-02T23:42:21.839Z,9.50
2019-05-02T23:44:51.887Z,9.40
2019-05-02T23:47:22.491Z,9.40
2019-05-02T23:49:52.026Z,9.40
2019-05-02T23:52:22.516Z,9.30
2019-05-02T23:54:52.600Z,9.20
2019-05-02T23:57:22.957Z,9.10
2019-05-02T23:59:52.346Z,9.10
